sensor_id;sensor_type;location;lat;lon;timestamp;P1;durP1;ratioP1;P2;durP2;ratioP2
10226;SDS011;15634;48.766;2.272;2022-08-25T00:01:46;9.82;;;4.40;;
10226;SDS011;15634;48.766;2.272;2022-08-25T00:04:14;9.48;;;4.18;;
10226;SDS011;15634;48.766;2.272;2022-08-25T00:06:43;6.25;;;4.65;;
10226;SDS011;15634;48.766;2.272;2022-08-25T00:09:13;7.85;;;3.72;;
10226;SDS011;15634;48.766;2.272;2022-08-25T00:11:40;8.43;;;4.10;;
10226;SDS011;15634;48.766;2.272;2022-08-25T00:14:08;8.32;;;4.07;;
10226;SDS011;15634;48.766;2.272;2022-08-25T00:16:37;6.78;;;4.00;;
10226;SDS011;15634;48.766;2.272;2022-08-25T00:19:05;8.55;;;4.47;;
10226;SDS011;15634;48.766;2.272;2022-08-25T00:21:32;6.40;;;3.88;;
10226;SDS011;15634;48.766;2.272;2022-08-25T00:24:01;7.78;;;4.30;;
10226;SDS011;15634;48.766;2.272;2022-08-25T00:26:29;9.27;;;4.90;;
10226;SDS011;15634;48.766;2.272;2022-08-25T00:28:56;8.15;;;4.60;;
10226;SDS011;15634;48.766;2.272;2022-08-25T00:31:23;6.57;;;4.00;;
10226;SDS011;15634;48.766;2.272;2022-08-25T00:33:50;9.50;;;4.15;;
10226;SDS011;15634;48.766;2.272;2022-08-25T00:36:17;7.82;;;4.05;;
10226;SDS011;15634;48.766;2.272;2022-08-25T00:38:45;7.30;;;4.10;;
10226;SDS011;15634;48.766;2.272;2022-08-25T00:41:15;7.88;;;4.35;;
10226;SDS011;15634;48.766;2.272;2022-08-25T00:43:46;8.80;;;4.00;;
10226;SDS011;15634;48.766;2.272;2022-08-25T00:46:16;10.88;;;4.60;;
10226;SDS011;15634;48.766;2.272;2022-08-25T00:48:46;8.90;;;4.35;;
10226;SDS011;15634;48.766;2.272;2022-08-25T00:51:16;7.32;;;4.32;;
10226;SDS011;15634;48.766;2.272;2022-08-25T00:53:45;8.43;;;4.05;;
10226;SDS011;15634;48.766;2.272;2022-08-25T00:56:11;9.98;;;4.40;;
10226;SDS011;15634;48.766;2.272;2022-08-25T00:58:40;8.45;;;4.40;;
10226;SDS011;15634;48.766;2.272;2022-08-25T01:01:07;6.82;;;4.32;;
10226;SDS011;15634;48.766;2.272;2022-08-25T01:03:35;5.93;;;3.85;;
10226;SDS011;15634;48.766;2.272;2022-08-25T01:06:02;11.77;;;4.60;;
10226;SDS011;15634;48.766;2.272;2022-08-25T01:08:29;10.48;;;4.00;;
10226;SDS011;15634;48.766;2.272;2022-08-25T01:10:58;7.50;;;4.22;;
10226;SDS011;15634;48.766;2.272;2022-08-25T01:13:31;8.38;;;4.50;;
10226;SDS011;15634;48.766;2.272;2022-08-25T01:16:01;7.50;;;3.97;;
10226;SDS011;15634;48.766;2.272;2022-08-25T01:18:30;7.03;;;4.18;;
10226;SDS011;15634;48.766;2.272;2022-08-25T01:21:09;7.07;;;4.57;;
10226;SDS011;15634;48.766;2.272;2022-08-25T01:23:36;8.05;;;4.10;;
10226;SDS011;15634;48.766;2.272;2022-08-25T01:26:03;7.40;;;4.18;;
10226;SDS011;15634;48.766;2.272;2022-08-25T01:28:31;9.20;;;4.72;;
10226;SDS011;15634;48.766;2.272;2022-08-25T01:30:59;6.85;;;4.40;;
10226;SDS011;15634;48.766;2.272;2022-08-25T01:33:25;7.57;;;4.47;;
10226;SDS011;15634;48.766;2.272;2022-08-25T01:35:52;8.18;;;4.57;;
10226;SDS011;15634;48.766;2.272;2022-08-25T01:38:21;7.45;;;4.47;;
10226;SDS011;15634;48.766;2.272;2022-08-25T01:40:47;6.97;;;4.00;;
10226;SDS011;15634;48.766;2.272;2022-08-25T01:43:16;8.50;;;4.45;;
10226;SDS011;15634;48.766;2.272;2022-08-25T01:45:49;6.32;;;4.00;;
10226;SDS011;15634;48.766;2.272;2022-08-25T01:48:16;6.63;;;4.22;;
10226;SDS011;15634;48.766;2.272;2022-08-25T01:50:44;5.85;;;4.15;;
10226;SDS011;15634;48.766;2.272;2022-08-25T01:53:12;8.60;;;4.05;;
10226;SDS011;15634;48.766;2.272;2022-08-25T01:55:45;7.55;;;3.95;;
10226;SDS011;15634;48.766;2.272;2022-08-25T01:58:27;9.95;;;4.25;;
10226;SDS011;15634;48.766;2.272;2022-08-25T02:00:56;6.22;;;4.10;;
10226;SDS011;15634;48.766;2.272;2022-08-25T02:03:24;9.23;;;3.95;;
10226;SDS011;15634;48.766;2.272;2022-08-25T02:05:51;7.57;;;4.30;;
10226;SDS011;15634;48.766;2.272;2022-08-25T02:08:19;9.15;;;4.43;;
10226;SDS011;15634;48.766;2.272;2022-08-25T02:10:48;6.00;;;3.95;;
10226;SDS011;15634;48.766;2.272;2022-08-25T02:13:15;8.77;;;4.30;;
10226;SDS011;15634;48.766;2.272;2022-08-25T02:15:44;12.90;;;8.10;;
10226;SDS011;15634;48.766;2.272;2022-08-25T02:18:13;8.50;;;4.50;;
10226;SDS011;15634;48.766;2.272;2022-08-25T02:20:40;8.07;;;4.35;;
10226;SDS011;15634;48.766;2.272;2022-08-25T02:23:07;7.10;;;4.00;;
10226;SDS011;15634;48.766;2.272;2022-08-25T02:25:35;7.55;;;4.15;;
10226;SDS011;15634;48.766;2.272;2022-08-25T02:28:04;6.80;;;4.15;;
10226;SDS011;15634;48.766;2.272;2022-08-25T02:30:32;8.27;;;4.32;;
10226;SDS011;15634;48.766;2.272;2022-08-25T02:32:59;7.20;;;3.97;;
10226;SDS011;15634;48.766;2.272;2022-08-25T02:35:26;7.63;;;3.90;;
10226;SDS011;15634;48.766;2.272;2022-08-25T02:37:53;8.32;;;3.85;;
10226;SDS011;15634;48.766;2.272;2022-08-25T02:40:20;6.97;;;4.15;;
10226;SDS011;15634;48.766;2.272;2022-08-25T02:42:47;8.02;;;4.13;;
10226;SDS011;15634;48.766;2.272;2022-08-25T02:45:16;6.63;;;4.25;;
10226;SDS011;15634;48.766;2.272;2022-08-25T02:47:43;9.15;;;3.70;;
10226;SDS011;15634;48.766;2.272;2022-08-25T02:50:11;6.70;;;4.18;;
10226;SDS011;15634;48.766;2.272;2022-08-25T02:52:38;6.32;;;4.00;;
10226;SDS011;15634;48.766;2.272;2022-08-25T02:55:06;7.10;;;3.92;;
10226;SDS011;15634;48.766;2.272;2022-08-25T02:57:34;5.20;;;4.20;;
10226;SDS011;15634;48.766;2.272;2022-08-25T03:00:02;5.88;;;3.95;;
10226;SDS011;15634;48.766;2.272;2022-08-25T03:02:31;8.75;;;4.05;;
10226;SDS011;15634;48.766;2.272;2022-08-25T03:04:58;8.88;;;4.03;;
10226;SDS011;15634;48.766;2.272;2022-08-25T03:07:24;9.77;;;4.30;;
10226;SDS011;15634;48.766;2.272;2022-08-25T03:09:51;8.38;;;4.35;;
10226;SDS011;15634;48.766;2.272;2022-08-25T03:12:18;7.75;;;4.20;;
10226;SDS011;15634;48.766;2.272;2022-08-25T03:14:46;7.28;;;4.60;;
10226;SDS011;15634;48.766;2.272;2022-08-25T03:17:13;5.55;;;3.78;;
10226;SDS011;15634;48.766;2.272;2022-08-25T03:19:41;7.45;;;3.80;;
10226;SDS011;15634;48.766;2.272;2022-08-25T03:22:08;7.07;;;3.95;;
10226;SDS011;15634;48.766;2.272;2022-08-25T03:24:34;8.95;;;4.32;;
10226;SDS011;15634;48.766;2.272;2022-08-25T03:27:01;6.40;;;3.97;;
10226;SDS011;15634;48.766;2.272;2022-08-25T03:29:29;9.43;;;4.10;;
10226;SDS011;15634;48.766;2.272;2022-08-25T03:31:57;7.07;;;4.20;;
10226;SDS011;15634;48.766;2.272;2022-08-25T03:34:24;7.55;;;4.15;;
10226;SDS011;15634;48.766;2.272;2022-08-25T03:36:53;6.40;;;3.80;;
10226;SDS011;15634;48.766;2.272;2022-08-25T03:39:21;8.20;;;4.00;;
10226;SDS011;15634;48.766;2.272;2022-08-25T03:41:48;6.30;;;4.10;;
10226;SDS011;15634;48.766;2.272;2022-08-25T03:44:16;6.32;;;3.75;;
10226;SDS011;15634;48.766;2.272;2022-08-25T03:46:45;7.95;;;4.00;;
10226;SDS011;15634;48.766;2.272;2022-08-25T03:49:13;5.82;;;3.78;;
10226;SDS011;15634;48.766;2.272;2022-08-25T03:51:43;9.15;;;4.10;;
10226;SDS011;15634;48.766;2.272;2022-08-25T03:54:13;7.00;;;4.40;;
10226;SDS011;15634;48.766;2.272;2022-08-25T03:56:40;6.18;;;4.30;;
10226;SDS011;15634;48.766;2.272;2022-08-25T03:59:07;5.72;;;4.10;;
10226;SDS011;15634;48.766;2.272;2022-08-25T04:01:34;8.60;;;4.78;;
10226;SDS011;15634;48.766;2.272;2022-08-25T04:04:01;7.85;;;4.13;;
10226;SDS011;15634;48.766;2.272;2022-08-25T04:06:28;5.93;;;3.67;;
10226;SDS011;15634;48.766;2.272;2022-08-25T04:08:56;7.13;;;4.03;;
10226;SDS011;15634;48.766;2.272;2022-08-25T04:11:25;7.22;;;4.22;;
10226;SDS011;15634;48.766;2.272;2022-08-25T04:13:52;7.75;;;3.95;;
10226;SDS011;15634;48.766;2.272;2022-08-25T04:16:22;7.07;;;4.00;;
10226;SDS011;15634;48.766;2.272;2022-08-25T04:18:50;6.18;;;4.07;;
10226;SDS011;15634;48.766;2.272;2022-08-25T04:21:18;8.00;;;4.32;;
10226;SDS011;15634;48.766;2.272;2022-08-25T04:23:45;8.75;;;4.18;;
10226;SDS011;15634;48.766;2.272;2022-08-25T04:26:13;7.05;;;3.97;;
10226;SDS011;15634;48.766;2.272;2022-08-25T04:28:42;7.53;;;3.67;;
10226;SDS011;15634;48.766;2.272;2022-08-25T04:31:09;5.90;;;3.92;;
10226;SDS011;15634;48.766;2.272;2022-08-25T04:33:38;9.00;;;3.80;;
10226;SDS011;15634;48.766;2.272;2022-08-25T04:36:06;7.38;;;4.40;;
10226;SDS011;15634;48.766;2.272;2022-08-25T04:38:36;6.00;;;3.90;;
10226;SDS011;15634;48.766;2.272;2022-08-25T04:41:03;8.10;;;4.18;;
10226;SDS011;15634;48.766;2.272;2022-08-25T04:43:31;5.60;;;3.78;;
10226;SDS011;15634;48.766;2.272;2022-08-25T04:46:03;6.97;;;4.50;;
10226;SDS011;15634;48.766;2.272;2022-08-25T04:48:30;6.25;;;4.00;;
10226;SDS011;15634;48.766;2.272;2022-08-25T04:50:57;6.03;;;3.83;;
10226;SDS011;15634;48.766;2.272;2022-08-25T04:53:24;8.43;;;3.90;;
10226;SDS011;15634;48.766;2.272;2022-08-25T04:55:50;5.35;;;3.67;;
10226;SDS011;15634;48.766;2.272;2022-08-25T04:58:17;8.60;;;4.05;;
10226;SDS011;15634;48.766;2.272;2022-08-25T05:00:44;8.13;;;3.95;;
10226;SDS011;15634;48.766;2.272;2022-08-25T05:03:13;7.63;;;4.28;;
10226;SDS011;15634;48.766;2.272;2022-08-25T05:05:39;4.97;;;3.60;;
10226;SDS011;15634;48.766;2.272;2022-08-25T05:08:06;6.57;;;4.03;;
10226;SDS011;15634;48.766;2.272;2022-08-25T05:10:37;6.18;;;3.72;;
10226;SDS011;15634;48.766;2.272;2022-08-25T05:13:04;5.85;;;3.97;;
10226;SDS011;15634;48.766;2.272;2022-08-25T05:15:31;8.63;;;3.85;;
10226;SDS011;15634;48.766;2.272;2022-08-25T05:18:18;4.70;;;3.33;;
10226;SDS011;15634;48.766;2.272;2022-08-25T05:20:45;7.57;;;3.85;;
10226;SDS011;15634;48.766;2.272;2022-08-25T05:23:12;7.45;;;3.90;;
10226;SDS011;15634;48.766;2.272;2022-08-25T05:25:39;7.38;;;4.03;;
10226;SDS011;15634;48.766;2.272;2022-08-25T05:28:06;7.28;;;3.92;;
10226;SDS011;15634;48.766;2.272;2022-08-25T05:30:36;7.63;;;3.80;;
10226;SDS011;15634;48.766;2.272;2022-08-25T05:33:03;8.70;;;4.20;;
10226;SDS011;15634;48.766;2.272;2022-08-25T05:35:31;7.18;;;4.50;;
10226;SDS011;15634;48.766;2.272;2022-08-25T05:37:58;5.57;;;3.88;;
10226;SDS011;15634;48.766;2.272;2022-08-25T05:40:25;8.43;;;3.92;;
10226;SDS011;15634;48.766;2.272;2022-08-25T05:42:52;6.85;;;3.92;;
10226;SDS011;15634;48.766;2.272;2022-08-25T05:45:19;8.45;;;3.67;;
10226;SDS011;15634;48.766;2.272;2022-08-25T05:47:46;6.82;;;3.90;;
10226;SDS011;15634;48.766;2.272;2022-08-25T05:50:13;5.65;;;4.10;;
10226;SDS011;15634;48.766;2.272;2022-08-25T05:52:41;6.95;;;3.58;;
10226;SDS011;15634;48.766;2.272;2022-08-25T05:55:09;7.80;;;4.15;;
10226;SDS011;15634;48.766;2.272;2022-08-25T05:57:36;7.53;;;4.18;;
10226;SDS011;15634;48.766;2.272;2022-08-25T06:00:03;7.40;;;3.97;;
10226;SDS011;15634;48.766;2.272;2022-08-25T06:02:31;8.30;;;4.35;;
10226;SDS011;15634;48.766;2.272;2022-08-25T06:05:07;6.18;;;4.07;;
10226;SDS011;15634;48.766;2.272;2022-08-25T06:07:35;9.15;;;4.55;;
10226;SDS011;15634;48.766;2.272;2022-08-25T06:10:03;8.32;;;4.22;;
10226;SDS011;15634;48.766;2.272;2022-08-25T06:12:31;9.27;;;4.13;;
10226;SDS011;15634;48.766;2.272;2022-08-25T06:15:00;8.73;;;4.03;;
10226;SDS011;15634;48.766;2.272;2022-08-25T06:17:27;7.32;;;3.88;;
10226;SDS011;15634;48.766;2.272;2022-08-25T06:19:53;8.10;;;4.30;;
10226;SDS011;15634;48.766;2.272;2022-08-25T06:22:20;9.00;;;4.20;;
10226;SDS011;15634;48.766;2.272;2022-08-25T06:24:47;8.18;;;4.40;;
10226;SDS011;15634;48.766;2.272;2022-08-25T06:27:15;7.20;;;4.00;;
10226;SDS011;15634;48.766;2.272;2022-08-25T06:29:42;13.98;;;4.30;;
10226;SDS011;15634;48.766;2.272;2022-08-25T06:32:09;10.10;;;4.50;;
10226;SDS011;15634;48.766;2.272;2022-08-25T06:34:36;6.97;;;4.47;;
10226;SDS011;15634;48.766;2.272;2022-08-25T06:37:03;5.57;;;3.72;;
10226;SDS011;15634;48.766;2.272;2022-08-25T06:39:29;7.20;;;3.65;;
10226;SDS011;15634;48.766;2.272;2022-08-25T06:41:56;7.28;;;3.85;;
10226;SDS011;15634;48.766;2.272;2022-08-25T06:44:24;10.73;;;3.88;;
10226;SDS011;15634;48.766;2.272;2022-08-25T06:46:51;13.07;;;4.35;;
10226;SDS011;15634;48.766;2.272;2022-08-25T06:49:18;9.05;;;4.13;;
10226;SDS011;15634;48.766;2.272;2022-08-25T06:51:45;7.88;;;3.92;;
10226;SDS011;15634;48.766;2.272;2022-08-25T06:54:13;11.93;;;3.65;;
10226;SDS011;15634;48.766;2.272;2022-08-25T06:56:40;8.60;;;3.83;;
10226;SDS011;15634;48.766;2.272;2022-08-25T06:59:08;8.05;;;3.80;;
10226;SDS011;15634;48.766;2.272;2022-08-25T07:01:36;11.55;;;3.90;;
10226;SDS011;15634;48.766;2.272;2022-08-25T07:04:03;10.63;;;3.97;;
10226;SDS011;15634;48.766;2.272;2022-08-25T07:06:31;7.15;;;3.72;;
10226;SDS011;15634;48.766;2.272;2022-08-25T07:09:00;9.32;;;3.85;;
10226;SDS011;15634;48.766;2.272;2022-08-25T07:11:27;9.25;;;3.90;;
10226;SDS011;15634;48.766;2.272;2022-08-25T07:13:58;6.35;;;3.80;;
10226;SDS011;15634;48.766;2.272;2022-08-25T07:16:26;7.65;;;3.72;;
10226;SDS011;15634;48.766;2.272;2022-08-25T07:18:54;11.25;;;3.92;;
10226;SDS011;15634;48.766;2.272;2022-08-25T07:21:21;7.68;;;3.80;;
10226;SDS011;15634;48.766;2.272;2022-08-25T07:23:48;8.18;;;3.78;;
10226;SDS011;15634;48.766;2.272;2022-08-25T07:26:16;6.60;;;3.83;;
10226;SDS011;15634;48.766;2.272;2022-08-25T07:28:44;7.22;;;3.55;;
10226;SDS011;15634;48.766;2.272;2022-08-25T07:31:11;8.50;;;3.67;;
10226;SDS011;15634;48.766;2.272;2022-08-25T07:33:38;7.53;;;4.10;;
10226;SDS011;15634;48.766;2.272;2022-08-25T07:36:26;9.10;;;3.75;;
10226;SDS011;15634;48.766;2.272;2022-08-25T07:38:52;8.50;;;3.63;;
10226;SDS011;15634;48.766;2.272;2022-08-25T07:41:19;7.35;;;3.83;;
10226;SDS011;15634;48.766;2.272;2022-08-25T07:43:46;7.50;;;4.07;;
10226;SDS011;15634;48.766;2.272;2022-08-25T07:46:13;6.30;;;3.42;;
10226;SDS011;15634;48.766;2.272;2022-08-25T07:48:39;10.60;;;4.07;;
10226;SDS011;15634;48.766;2.272;2022-08-25T07:51:06;10.30;;;3.78;;
10226;SDS011;15634;48.766;2.272;2022-08-25T07:53:35;6.15;;;3.80;;
10226;SDS011;15634;48.766;2.272;2022-08-25T07:56:02;8.98;;;3.78;;
10226;SDS011;15634;48.766;2.272;2022-08-25T07:58:33;8.38;;;4.00;;
10226;SDS011;15634;48.766;2.272;2022-08-25T08:01:00;8.82;;;3.55;;
10226;SDS011;15634;48.766;2.272;2022-08-25T08:03:27;6.65;;;3.75;;
10226;SDS011;15634;48.766;2.272;2022-08-25T08:05:54;9.88;;;3.70;;
10226;SDS011;15634;48.766;2.272;2022-08-25T08:08:21;6.93;;;3.65;;
10226;SDS011;15634;48.766;2.272;2022-08-25T08:10:49;17.20;;;4.45;;
10226;SDS011;15634;48.766;2.272;2022-08-25T08:13:16;10.60;;;3.83;;
10226;SDS011;15634;48.766;2.272;2022-08-25T08:15:43;11.18;;;4.15;;
10226;SDS011;15634;48.766;2.272;2022-08-25T08:18:10;14.35;;;3.80;;
10226;SDS011;15634;48.766;2.272;2022-08-25T08:20:36;6.32;;;3.88;;
10226;SDS011;15634;48.766;2.272;2022-08-25T08:23:03;5.95;;;3.90;;
10226;SDS011;15634;48.766;2.272;2022-08-25T08:25:30;8.07;;;3.40;;
10226;SDS011;15634;48.766;2.272;2022-08-25T08:27:58;10.45;;;3.47;;
10226;SDS011;15634;48.766;2.272;2022-08-25T08:30:25;6.03;;;3.45;;
10226;SDS011;15634;48.766;2.272;2022-08-25T08:32:51;7.72;;;3.50;;
10226;SDS011;15634;48.766;2.272;2022-08-25T08:35:18;9.40;;;3.40;;
10226;SDS011;15634;48.766;2.272;2022-08-25T08:37:45;8.55;;;3.25;;
10226;SDS011;15634;48.766;2.272;2022-08-25T08:40:11;8.52;;;3.60;;
10226;SDS011;15634;48.766;2.272;2022-08-25T08:42:46;8.95;;;3.20;;
10226;SDS011;15634;48.766;2.272;2022-08-25T08:45:26;6.95;;;3.15;;
10226;SDS011;15634;48.766;2.272;2022-08-25T08:51:00;6.15;;;3.30;;
10226;SDS011;15634;48.766;2.272;2022-08-25T08:53:31;6.03;;;3.30;;
10226;SDS011;15634;48.766;2.272;2022-08-25T08:56:04;8.35;;;3.35;;
10226;SDS011;15634;48.766;2.272;2022-08-25T08:58:34;7.65;;;3.40;;
10226;SDS011;15634;48.766;2.272;2022-08-25T09:01:07;8.10;;;3.15;;
10226;SDS011;15634;48.766;2.272;2022-08-25T09:03:36;5.00;;;3.20;;
10226;SDS011;15634;48.766;2.272;2022-08-25T09:06:07;10.82;;;3.60;;
10226;SDS011;15634;48.766;2.272;2022-08-25T09:08:36;6.20;;;3.67;;
10226;SDS011;15634;48.766;2.272;2022-08-25T09:11:06;6.55;;;3.70;;
10226;SDS011;15634;48.766;2.272;2022-08-25T09:13:38;5.32;;;3.55;;
10226;SDS011;15634;48.766;2.272;2022-08-25T09:16:26;8.00;;;3.30;;
10226;SDS011;15634;48.766;2.272;2022-08-25T09:19:24;8.10;;;3.72;;
10226;SDS011;15634;48.766;2.272;2022-08-25T09:22:03;5.88;;;3.72;;
10226;SDS011;15634;48.766;2.272;2022-08-25T09:24:39;10.10;;;4.00;;
10226;SDS011;15634;48.766;2.272;2022-08-25T09:27:13;6.40;;;3.60;;
10226;SDS011;15634;48.766;2.272;2022-08-25T09:29:47;5.93;;;3.40;;
10226;SDS011;15634;48.766;2.272;2022-08-25T09:32:23;8.10;;;3.80;;
10226;SDS011;15634;48.766;2.272;2022-08-25T09:34:51;8.05;;;3.67;;
10226;SDS011;15634;48.766;2.272;2022-08-25T09:37:18;7.38;;;3.47;;
10226;SDS011;15634;48.766;2.272;2022-08-25T09:39:45;4.32;;;3.20;;
10226;SDS011;15634;48.766;2.272;2022-08-25T09:42:11;4.75;;;3.70;;
10226;SDS011;15634;48.766;2.272;2022-08-25T09:44:39;6.10;;;3.53;;
10226;SDS011;15634;48.766;2.272;2022-08-25T09:47:12;6.05;;;3.53;;
10226;SDS011;15634;48.766;2.272;2022-08-25T09:49:50;8.27;;;3.90;;
10226;SDS011;15634;48.766;2.272;2022-08-25T09:52:28;6.82;;;3.83;;
10226;SDS011;15634;48.766;2.272;2022-08-25T09:54:58;9.07;;;4.20;;
10226;SDS011;15634;48.766;2.272;2022-08-25T09:57:27;5.70;;;3.80;;
10226;SDS011;15634;48.766;2.272;2022-08-25T10:00:07;6.63;;;3.70;;
10226;SDS011;15634;48.766;2.272;2022-08-25T10:02:36;8.82;;;3.92;;
10226;SDS011;15634;48.766;2.272;2022-08-25T10:05:15;8.85;;;3.80;;
10226;SDS011;15634;48.766;2.272;2022-08-25T10:07:50;7.78;;;3.85;;
10226;SDS011;15634;48.766;2.272;2022-08-25T10:10:21;10.07;;;3.85;;
10226;SDS011;15634;48.766;2.272;2022-08-25T10:12:53;8.70;;;3.63;;
10226;SDS011;15634;48.766;2.272;2022-08-25T10:15:24;7.28;;;3.67;;
10226;SDS011;15634;48.766;2.272;2022-08-25T10:17:52;5.75;;;3.80;;
10226;SDS011;15634;48.766;2.272;2022-08-25T10:20:21;8.95;;;4.07;;
10226;SDS011;15634;48.766;2.272;2022-08-25T10:22:49;7.43;;;3.70;;
10226;SDS011;15634;48.766;2.272;2022-08-25T10:25:23;7.78;;;3.80;;
10226;SDS011;15634;48.766;2.272;2022-08-25T10:27:55;6.10;;;4.00;;
10226;SDS011;15634;48.766;2.272;2022-08-25T10:30:29;5.68;;;4.18;;
10226;SDS011;15634;48.766;2.272;2022-08-25T10:33:09;7.43;;;4.38;;
10226;SDS011;15634;48.766;2.272;2022-08-25T10:35:46;6.13;;;4.05;;
10226;SDS011;15634;48.766;2.272;2022-08-25T10:38:22;7.65;;;3.80;;
10226;SDS011;15634;48.766;2.272;2022-08-25T10:41:14;8.07;;;3.72;;
10226;SDS011;15634;48.766;2.272;2022-08-25T10:43:52;8.93;;;4.43;;
10226;SDS011;15634;48.766;2.272;2022-08-25T10:46:23;11.10;;;4.78;;
10226;SDS011;15634;48.766;2.272;2022-08-25T10:48:57;8.43;;;4.45;;
10226;SDS011;15634;48.766;2.272;2022-08-25T10:51:30;7.05;;;3.80;;
10226;SDS011;15634;48.766;2.272;2022-08-25T10:54:03;6.63;;;3.50;;
10226;SDS011;15634;48.766;2.272;2022-08-25T10:56:33;9.80;;;3.58;;
10226;SDS011;15634;48.766;2.272;2022-08-25T10:59:06;6.57;;;3.97;;
10226;SDS011;15634;48.766;2.272;2022-08-25T11:01:48;5.47;;;3.38;;
10226;SDS011;15634;48.766;2.272;2022-08-25T11:04:29;5.50;;;3.85;;
10226;SDS011;15634;48.766;2.272;2022-08-25T11:07:02;11.23;;;3.53;;
10226;SDS011;15634;48.766;2.272;2022-08-25T11:09:32;4.70;;;3.40;;
10226;SDS011;15634;48.766;2.272;2022-08-25T11:12:01;5.97;;;3.60;;
10226;SDS011;15634;48.766;2.272;2022-08-25T11:14:32;5.68;;;3.20;;
10226;SDS011;15634;48.766;2.272;2022-08-25T11:17:02;8.40;;;3.60;;
10226;SDS011;15634;48.766;2.272;2022-08-25T11:19:30;7.60;;;3.42;;
10226;SDS011;15634;48.766;2.272;2022-08-25T11:22:02;6.55;;;3.10;;
10226;SDS011;15634;48.766;2.272;2022-08-25T11:24:37;4.97;;;3.10;;
10226;SDS011;15634;48.766;2.272;2022-08-25T11:27:09;7.60;;;3.30;;
10226;SDS011;15634;48.766;2.272;2022-08-25T11:29:40;5.95;;;3.38;;
10226;SDS011;15634;48.766;2.272;2022-08-25T11:32:07;4.90;;;3.08;;
10226;SDS011;15634;48.766;2.272;2022-08-25T11:34:34;5.60;;;3.45;;
10226;SDS011;15634;48.766;2.272;2022-08-25T11:37:04;6.50;;;3.00;;
10226;SDS011;15634;48.766;2.272;2022-08-25T11:39:54;7.85;;;3.58;;
10226;SDS011;15634;48.766;2.272;2022-08-25T11:42:34;4.57;;;2.92;;
10226;SDS011;15634;48.766;2.272;2022-08-25T11:45:11;4.75;;;3.28;;
10226;SDS011;15634;48.766;2.272;2022-08-25T11:48:00;5.03;;;3.10;;
10226;SDS011;15634;48.766;2.272;2022-08-25T11:50:36;6.72;;;3.30;;
10226;SDS011;15634;48.766;2.272;2022-08-25T11:53:24;7.03;;;3.20;;
10226;SDS011;15634;48.766;2.272;2022-08-25T11:55:53;6.35;;;3.03;;
10226;SDS011;15634;48.766;2.272;2022-08-25T11:58:29;6.60;;;3.17;;
10226;SDS011;15634;48.766;2.272;2022-08-25T12:00:58;5.88;;;3.22;;
10226;SDS011;15634;48.766;2.272;2022-08-25T12:06:27;4.35;;;3.08;;
10226;SDS011;15634;48.766;2.272;2022-08-25T12:11:43;6.60;;;3.00;;
10226;SDS011;15634;48.766;2.272;2022-08-25T12:14:14;4.72;;;2.90;;
10226;SDS011;15634;48.766;2.272;2022-08-25T12:19:23;5.07;;;2.80;;
10226;SDS011;15634;48.766;2.272;2022-08-25T12:21:53;4.63;;;2.85;;
10226;SDS011;15634;48.766;2.272;2022-08-25T12:24:23;3.72;;;2.85;;
10226;SDS011;15634;48.766;2.272;2022-08-25T12:27:02;5.57;;;2.97;;
10226;SDS011;15634;48.766;2.272;2022-08-25T12:29:31;5.55;;;3.10;;
10226;SDS011;15634;48.766;2.272;2022-08-25T12:32:15;4.05;;;2.90;;
10226;SDS011;15634;48.766;2.272;2022-08-25T12:35:06;5.43;;;3.20;;
10226;SDS011;15634;48.766;2.272;2022-08-25T12:37:52;4.65;;;2.85;;
10226;SDS011;15634;48.766;2.272;2022-08-25T12:40:24;7.00;;;3.20;;
10226;SDS011;15634;48.766;2.272;2022-08-25T12:43:03;6.75;;;3.20;;
10226;SDS011;15634;48.766;2.272;2022-08-25T12:45:36;3.90;;;3.00;;
10226;SDS011;15634;48.766;2.272;2022-08-25T12:51:21;5.13;;;3.30;;
10226;SDS011;15634;48.766;2.272;2022-08-25T12:53:49;5.05;;;3.10;;
10226;SDS011;15634;48.766;2.272;2022-08-25T12:56:21;4.30;;;3.17;;
10226;SDS011;15634;48.766;2.272;2022-08-25T12:59:01;4.18;;;2.78;;
10226;SDS011;15634;48.766;2.272;2022-08-25T13:01:38;6.28;;;3.00;;
10226;SDS011;15634;48.766;2.272;2022-08-25T13:04:18;6.68;;;3.30;;
10226;SDS011;15634;48.766;2.272;2022-08-25T13:06:57;6.82;;;3.05;;
10226;SDS011;15634;48.766;2.272;2022-08-25T13:12:35;5.18;;;2.72;;
10226;SDS011;15634;48.766;2.272;2022-08-25T13:15:04;4.75;;;2.90;;
10226;SDS011;15634;48.766;2.272;2022-08-25T13:17:31;6.45;;;2.80;;
10226;SDS011;15634;48.766;2.272;2022-08-25T13:20:15;4.57;;;3.03;;
10226;SDS011;15634;48.766;2.272;2022-08-25T13:22:43;7.30;;;3.30;;
10226;SDS011;15634;48.766;2.272;2022-08-25T13:25:14;4.20;;;2.80;;
10226;SDS011;15634;48.766;2.272;2022-08-25T13:27:44;7.20;;;2.72;;
10226;SDS011;15634;48.766;2.272;2022-08-25T13:30:18;4.82;;;2.90;;
10226;SDS011;15634;48.766;2.272;2022-08-25T13:32:49;8.82;;;3.00;;
10226;SDS011;15634;48.766;2.272;2022-08-25T13:35:17;5.40;;;2.95;;
10226;SDS011;15634;48.766;2.272;2022-08-25T13:37:47;6.45;;;3.00;;
10226;SDS011;15634;48.766;2.272;2022-08-25T13:40:14;4.38;;;2.83;;
10226;SDS011;15634;48.766;2.272;2022-08-25T13:42:42;4.38;;;3.13;;
10226;SDS011;15634;48.766;2.272;2022-08-25T13:45:12;5.22;;;3.08;;
10226;SDS011;15634;48.766;2.272;2022-08-25T13:47:41;5.72;;;3.17;;
10226;SDS011;15634;48.766;2.272;2022-08-25T13:50:15;6.18;;;2.78;;
10226;SDS011;15634;48.766;2.272;2022-08-25T13:52:45;5.20;;;3.08;;
10226;SDS011;15634;48.766;2.272;2022-08-25T13:55:18;3.83;;;2.65;;
10226;SDS011;15634;48.766;2.272;2022-08-25T13:57:47;3.92;;;2.83;;
10226;SDS011;15634;48.766;2.272;2022-08-25T14:00:23;5.18;;;2.97;;
10226;SDS011;15634;48.766;2.272;2022-08-25T14:02:52;9.88;;;3.00;;
10226;SDS011;15634;48.766;2.272;2022-08-25T14:05:31;5.72;;;2.80;;
10226;SDS011;15634;48.766;2.272;2022-08-25T14:08:00;6.20;;;2.70;;
10226;SDS011;15634;48.766;2.272;2022-08-25T14:10:32;4.95;;;2.70;;
10226;SDS011;15634;48.766;2.272;2022-08-25T14:13:09;5.57;;;2.80;;
10226;SDS011;15634;48.766;2.272;2022-08-25T14:15:38;5.15;;;2.60;;
10226;SDS011;15634;48.766;2.272;2022-08-25T14:18:07;8.38;;;2.83;;
10226;SDS011;15634;48.766;2.272;2022-08-25T14:20:35;4.32;;;2.78;;
10226;SDS011;15634;48.766;2.272;2022-08-25T14:23:04;9.63;;;2.55;;
10226;SDS011;15634;48.766;2.272;2022-08-25T14:25:32;3.83;;;2.55;;
10226;SDS011;15634;48.766;2.272;2022-08-25T14:28:00;4.15;;;2.53;;
10226;SDS011;15634;48.766;2.272;2022-08-25T14:30:30;5.43;;;2.50;;
10226;SDS011;15634;48.766;2.272;2022-08-25T14:32:59;4.47;;;2.45;;
10226;SDS011;15634;48.766;2.272;2022-08-25T14:35:28;5.07;;;2.50;;
10226;SDS011;15634;48.766;2.272;2022-08-25T14:37:54;3.13;;;2.22;;
10226;SDS011;15634;48.766;2.272;2022-08-25T14:40:21;6.40;;;2.42;;
10226;SDS011;15634;48.766;2.272;2022-08-25T14:42:48;5.28;;;2.85;;
10226;SDS011;15634;48.766;2.272;2022-08-25T14:45:16;3.80;;;2.40;;
10226;SDS011;15634;48.766;2.272;2022-08-25T14:47:45;2.90;;;2.28;;
10226;SDS011;15634;48.766;2.272;2022-08-25T14:50:12;5.13;;;2.38;;
10226;SDS011;15634;48.766;2.272;2022-08-25T14:52:41;4.22;;;2.50;;
10226;SDS011;15634;48.766;2.272;2022-08-25T14:55:10;4.50;;;2.30;;
10226;SDS011;15634;48.766;2.272;2022-08-25T14:57:37;4.25;;;2.47;;
10226;SDS011;15634;48.766;2.272;2022-08-25T15:00:05;4.55;;;1.90;;
10226;SDS011;15634;48.766;2.272;2022-08-25T15:02:34;4.50;;;2.22;;
10226;SDS011;15634;48.766;2.272;2022-08-25T15:05:06;4.25;;;2.17;;
10226;SDS011;15634;48.766;2.272;2022-08-25T15:07:35;4.53;;;2.42;;
10226;SDS011;15634;48.766;2.272;2022-08-25T15:10:20;3.22;;;2.35;;
10226;SDS011;15634;48.766;2.272;2022-08-25T15:12:47;5.53;;;2.20;;
10226;SDS011;15634;48.766;2.272;2022-08-25T15:15:14;4.60;;;2.00;;
10226;SDS011;15634;48.766;2.272;2022-08-25T15:17:41;5.75;;;2.03;;
10226;SDS011;15634;48.766;2.272;2022-08-25T15:20:12;5.28;;;2.10;;
10226;SDS011;15634;48.766;2.272;2022-08-25T15:22:39;3.13;;;2.33;;